SNCO2: N. Canadian River at Shawnee, OK

                                SHEF ID:       SNCO2     North Canadian River at Shawnee,
STATION TYPE:

STAGE RIV-FLOW BAT-LOAD
ft cfs volt
Ccp-Rev Ccp-Rev Ccp-Rev
(America/Chicago)
04/29 00:00 9.42 156 11.83
04/29 01:00 9.41 154 11.83
04/29 02:00 9.39 151 11.81
04/29 03:00 9.37 148 11.81
04/29 04:00 9.33 142 11.78
04/29 05:00 9.31 139 11.77
04/29 06:00 9.23 128 11.75
04/29 07:00 9.36 147 11.73
04/29 08:00 9.35 145 11.79
04/29 09:00 9.30 138 12.30
04/29 10:00 9.24 129 12.55
04/29 11:00 9.33 142 12.51
04/29 12:00 9.23 128 12.40
04/29 13:00 9.32 141 12.30
04/29 14:00 9.27 133 12.17
04/29 15:00 9.30 138 12.21
04/29 16:00 9.23 128 12.11
04/29 17:00 9.24 129 12.08
04/29 18:00 9.23 128 12.06
04/29 19:00 9.31 139 11.95
04/29 20:00 9.33 142 11.83
04/29 21:00 9.33 142 11.84
04/29 22:00 9.33 142 11.82
04/29 23:00 ---- ---- ----
Data processed at Thu 30Apr2026 04:01 GMT

NOTICE: If you are parsing this page

Please convert to using our Data API. Starting early 2026 we will be migrating to: https://water.usace.army.mil with modern pages rendered in JavaScript. When this migration completes you will no longer be able to scrape this page! CWMSDataAPI (CDA)

Timeseries IDs (TSIDs)

TSIDs used from left to right in the data table
SHAW.Stage.Inst.1Hour.0.Ccp-Rev
SHAW.Flow.Inst.1Hour.0.Ccp-Rev
SHAW.Volt-Battery Load.Inst.1Hour.0.Ccp-Rev

                            

All information presented herein is the property of the government of the United States of America and may be revised or deleted at any time without prior notice. Dissemination of this information without the expressed written consent of the Public Affairs Office, Tulsa District U.S. Army Corps of Engineers is strictly prohibited. These data are gathered electronically and, as presented, have NOT undergone any form of quality control. These data are NOT guaranteed to be valid or correct.